Terminal Aerodrome Forecast
Issued by NWS

Home | Current Version | Previous Version | Text Only | Print | Product List | Glossary On
Versions: 1 2 3 4 5 6 7 8 9 10 11 12 13 14 15 16
027
FTUS44 KLZK 222335
TAFPBF
TAF
KPBF 222335Z 2300/2324 25007KT P6SM SCT050 SCT250
     FM230800 34007KT P6SM VCTS SCT050CB BKN100 OVC250
      TEMPO 2309/2313 VRB10G25KT 5SM -TSRA BKN050CB OVC080
     FM231300 01004KT P6SM VCTS SCT030CB BKN050 OVC100=

USA.gov is the U.S. government's official web portal to all federal, state and local government web resources and services.